sensor_id;sensor_type;location;lat;lon;timestamp;P1;durP1;ratioP1;P2;durP2;ratioP2
35478;SDS011;21594;49.794;18.652;2022-07-25T00:01:56;1.20;;;1.10;;
35478;SDS011;21594;49.794;18.652;2022-07-25T00:04:22;2.42;;;1.10;;
35478;SDS011;21594;49.794;18.652;2022-07-25T00:06:51;3.67;;;0.98;;
35478;SDS011;21594;49.794;18.652;2022-07-25T00:09:18;1.85;;;1.07;;
35478;SDS011;21594;49.794;18.652;2022-07-25T00:11:44;2.80;;;1.35;;
35478;SDS011;21594;49.794;18.652;2022-07-25T00:14:10;1.35;;;1.20;;
35478;SDS011;21594;49.794;18.652;2022-07-25T00:16:43;2.72;;;1.27;;
35478;SDS011;21594;49.794;18.652;2022-07-25T00:19:10;1.40;;;1.10;;
35478;SDS011;21594;49.794;18.652;2022-07-25T00:21:41;2.17;;;1.22;;
35478;SDS011;21594;49.794;18.652;2022-07-25T00:24:14;1.35;;;1.17;;
35478;SDS011;21594;49.794;18.652;2022-07-25T00:26:40;2.45;;;1.00;;
35478;SDS011;21594;49.794;18.652;2022-07-25T00:29:06;1.10;;;1.00;;
35478;SDS011;21594;49.794;18.652;2022-07-25T00:31:32;1.10;;;1.00;;
35478;SDS011;21594;49.794;18.652;2022-07-25T00:34:01;2.25;;;0.98;;
35478;SDS011;21594;49.794;18.652;2022-07-25T00:36:29;1.30;;;1.10;;
35478;SDS011;21594;49.794;18.652;2022-07-25T00:38:57;1.75;;;0.98;;
35478;SDS011;21594;49.794;18.652;2022-07-25T00:41:29;2.15;;;0.98;;
35478;SDS011;21594;49.794;18.652;2022-07-25T00:43:56;2.62;;;0.95;;
35478;SDS011;21594;49.794;18.652;2022-07-25T00:46:22;2.02;;;1.15;;
35478;SDS011;21594;49.794;18.652;2022-07-25T00:48:48;1.25;;;1.15;;
35478;SDS011;21594;49.794;18.652;2022-07-25T00:51:19;1.27;;;1.17;;
35478;SDS011;21594;49.794;18.652;2022-07-25T00:53:42;1.20;;;1.10;;
35478;SDS011;21594;49.794;18.652;2022-07-25T00:56:13;1.47;;;1.00;;
35478;SDS011;21594;49.794;18.652;2022-07-25T00:58:41;1.60;;;1.17;;
35478;SDS011;21594;49.794;18.652;2022-07-25T01:01:10;1.67;;;0.93;;
35478;SDS011;21594;49.794;18.652;2022-07-25T01:03:36;1.80;;;0.98;;
35478;SDS011;21594;49.794;18.652;2022-07-25T01:06:02;2.75;;;1.20;;
35478;SDS011;21594;49.794;18.652;2022-07-25T01:08:32;1.45;;;0.93;;
35478;SDS011;21594;49.794;18.652;2022-07-25T01:10:58;1.35;;;1.00;;
35478;SDS011;21594;49.794;18.652;2022-07-25T01:13:24;1.90;;;1.25;;
35478;SDS011;21594;49.794;18.652;2022-07-25T01:15:50;2.30;;;1.32;;
35478;SDS011;21594;49.794;18.652;2022-07-25T01:18:22;4.75;;;1.40;;
35478;SDS011;21594;49.794;18.652;2022-07-25T01:20:49;1.55;;;1.45;;
35478;SDS011;21594;49.794;18.652;2022-07-25T01:23:15;1.70;;;1.20;;
35478;SDS011;21594;49.794;18.652;2022-07-25T01:25:41;1.57;;;1.02;;
35478;SDS011;21594;49.794;18.652;2022-07-25T01:28:10;1.95;;;1.22;;
35478;SDS011;21594;49.794;18.652;2022-07-25T01:30:37;2.92;;;1.20;;
35478;SDS011;21594;49.794;18.652;2022-07-25T01:33:03;2.17;;;1.30;;
35478;SDS011;21594;49.794;18.652;2022-07-25T01:35:30;3.30;;;1.10;;
35478;SDS011;21594;49.794;18.652;2022-07-25T01:37:56;1.40;;;1.22;;
35478;SDS011;21594;49.794;18.652;2022-07-25T01:40:23;3.02;;;1.32;;
35478;SDS011;21594;49.794;18.652;2022-07-25T01:42:52;1.32;;;1.05;;
35478;SDS011;21594;49.794;18.652;2022-07-25T01:45:18;1.10;;;1.00;;
35478;SDS011;21594;49.794;18.652;2022-07-25T01:47:45;1.57;;;1.10;;
35478;SDS011;21594;49.794;18.652;2022-07-25T01:50:17;2.52;;;1.17;;
35478;SDS011;21594;49.794;18.652;2022-07-25T01:52:43;3.33;;;1.20;;
35478;SDS011;21594;49.794;18.652;2022-07-25T01:55:11;2.25;;;1.05;;
35478;SDS011;21594;49.794;18.652;2022-07-25T01:57:38;1.67;;;1.10;;
35478;SDS011;21594;49.794;18.652;2022-07-25T02:00:08;1.75;;;1.00;;
35478;SDS011;21594;49.794;18.652;2022-07-25T02:02:38;1.27;;;0.98;;
35478;SDS011;21594;49.794;18.652;2022-07-25T02:05:06;2.12;;;1.27;;
35478;SDS011;21594;49.794;18.652;2022-07-25T02:07:40;1.27;;;1.00;;
35478;SDS011;21594;49.794;18.652;2022-07-25T02:10:13;1.52;;;1.10;;
35478;SDS011;21594;49.794;18.652;2022-07-25T02:12:39;2.58;;;1.10;;
35478;SDS011;21594;49.794;18.652;2022-07-25T02:15:05;2.35;;;1.10;;
35478;SDS011;21594;49.794;18.652;2022-07-25T02:17:35;2.02;;;1.22;;
35478;SDS011;21594;49.794;18.652;2022-07-25T02:20:03;1.30;;;1.00;;
35478;SDS011;21594;49.794;18.652;2022-07-25T02:22:30;1.85;;;1.60;;
35478;SDS011;21594;49.794;18.652;2022-07-25T02:25:03;2.25;;;1.27;;
35478;SDS011;21594;49.794;18.652;2022-07-25T02:27:33;3.87;;;1.15;;
35478;SDS011;21594;49.794;18.652;2022-07-25T02:30:00;1.82;;;1.22;;
35478;SDS011;21594;49.794;18.652;2022-07-25T02:32:26;2.17;;;1.07;;
35478;SDS011;21594;49.794;18.652;2022-07-25T02:34:53;2.80;;;1.40;;
35478;SDS011;21594;49.794;18.652;2022-07-25T02:37:25;2.42;;;1.00;;
35478;SDS011;21594;49.794;18.652;2022-07-25T02:39:51;2.47;;;1.40;;
35478;SDS011;21594;49.794;18.652;2022-07-25T02:42:17;1.52;;;1.40;;
35478;SDS011;21594;49.794;18.652;2022-07-25T02:44:44;1.20;;;1.07;;
35478;SDS011;21594;49.794;18.652;2022-07-25T02:47:10;1.52;;;1.00;;
35478;SDS011;21594;49.794;18.652;2022-07-25T02:49:36;1.70;;;1.52;;
35478;SDS011;21594;49.794;18.652;2022-07-25T02:52:03;1.98;;;1.10;;
35478;SDS011;21594;49.794;18.652;2022-07-25T02:54:30;2.98;;;1.27;;
35478;SDS011;21594;49.794;18.652;2022-07-25T02:56:57;2.72;;;1.17;;
35478;SDS011;21594;49.794;18.652;2022-07-25T02:59:23;1.95;;;1.22;;
35478;SDS011;21594;49.794;18.652;2022-07-25T03:01:54;2.87;;;1.17;;
35478;SDS011;21594;49.794;18.652;2022-07-25T03:04:17;1.87;;;1.30;;
35478;SDS011;21594;49.794;18.652;2022-07-25T03:06:45;2.85;;;1.10;;
35478;SDS011;21594;49.794;18.652;2022-07-25T03:09:11;1.57;;;1.20;;
35478;SDS011;21594;49.794;18.652;2022-07-25T03:11:37;2.42;;;1.30;;
35478;SDS011;21594;49.794;18.652;2022-07-25T03:14:06;1.30;;;1.10;;
35478;SDS011;21594;49.794;18.652;2022-07-25T03:16:33;1.72;;;1.17;;
35478;SDS011;21594;49.794;18.652;2022-07-25T03:18:59;1.60;;;1.07;;
35478;SDS011;21594;49.794;18.652;2022-07-25T03:21:25;2.35;;;1.20;;
35478;SDS011;21594;49.794;18.652;2022-07-25T03:23:51;2.08;;;1.60;;
35478;SDS011;21594;49.794;18.652;2022-07-25T03:26:27;2.72;;;1.30;;
35478;SDS011;21594;49.794;18.652;2022-07-25T03:28:53;1.22;;;1.12;;
35478;SDS011;21594;49.794;18.652;2022-07-25T03:31:20;1.85;;;1.17;;
35478;SDS011;21594;49.794;18.652;2022-07-25T03:33:46;1.85;;;1.07;;
35478;SDS011;21594;49.794;18.652;2022-07-25T03:36:15;2.58;;;1.25;;
35478;SDS011;21594;49.794;18.652;2022-07-25T03:38:43;3.47;;;1.20;;
35478;SDS011;21594;49.794;18.652;2022-07-25T03:41:09;2.95;;;1.22;;
35478;SDS011;21594;49.794;18.652;2022-07-25T03:43:37;1.30;;;1.17;;
35478;SDS011;21594;49.794;18.652;2022-07-25T03:46:03;1.62;;;1.10;;
35478;SDS011;21594;49.794;18.652;2022-07-25T03:48:29;1.30;;;1.10;;
35478;SDS011;21594;49.794;18.652;2022-07-25T03:50:56;3.95;;;1.10;;
35478;SDS011;21594;49.794;18.652;2022-07-25T03:53:22;1.25;;;1.10;;
35478;SDS011;21594;49.794;18.652;2022-07-25T03:58:18;3.87;;;1.20;;
35478;SDS011;21594;49.794;18.652;2022-07-25T04:00:44;1.47;;;1.12;;
35478;SDS011;21594;49.794;18.652;2022-07-25T04:03:13;1.20;;;1.10;;
35478;SDS011;21594;49.794;18.652;2022-07-25T04:05:40;1.82;;;1.25;;
35478;SDS011;21594;49.794;18.652;2022-07-25T04:08:07;2.47;;;1.52;;
35478;SDS011;21594;49.794;18.652;2022-07-25T04:10:33;1.55;;;1.20;;
35478;SDS011;21594;49.794;18.652;2022-07-25T04:13:01;1.87;;;1.55;;
35478;SDS011;21594;49.794;18.652;2022-07-25T04:15:38;1.37;;;1.12;;
35478;SDS011;21594;49.794;18.652;2022-07-25T04:18:04;3.17;;;1.10;;
35478;SDS011;21594;49.794;18.652;2022-07-25T04:20:31;2.85;;;1.67;;
35478;SDS011;21594;49.794;18.652;2022-07-25T04:22:57;2.02;;;1.42;;
35478;SDS011;21594;49.794;18.652;2022-07-25T04:25:29;2.67;;;1.27;;
35478;SDS011;21594;49.794;18.652;2022-07-25T04:27:58;1.77;;;1.30;;
35478;SDS011;21594;49.794;18.652;2022-07-25T04:30:24;1.80;;;1.40;;
35478;SDS011;21594;49.794;18.652;2022-07-25T04:32:50;1.92;;;1.40;;
35478;SDS011;21594;49.794;18.652;2022-07-25T04:35:20;3.85;;;1.45;;
35478;SDS011;21594;49.794;18.652;2022-07-25T04:37:46;1.47;;;1.37;;
35478;SDS011;21594;49.794;18.652;2022-07-25T04:40:14;2.90;;;1.20;;
35478;SDS011;21594;49.794;18.652;2022-07-25T04:42:41;2.10;;;1.60;;
35478;SDS011;21594;49.794;18.652;2022-07-25T04:45:07;1.67;;;1.40;;
35478;SDS011;21594;49.794;18.652;2022-07-25T04:47:36;3.12;;;1.42;;
35478;SDS011;21594;49.794;18.652;2022-07-25T04:50:02;2.22;;;1.30;;
35478;SDS011;21594;49.794;18.652;2022-07-25T04:52:28;1.98;;;1.55;;
35478;SDS011;21594;49.794;18.652;2022-07-25T04:54:54;2.52;;;1.72;;
35478;SDS011;21594;49.794;18.652;2022-07-25T04:57:22;2.60;;;1.70;;
35478;SDS011;21594;49.794;18.652;2022-07-25T04:59:49;2.65;;;1.45;;
35478;SDS011;21594;49.794;18.652;2022-07-25T05:02:21;2.92;;;1.82;;
35478;SDS011;21594;49.794;18.652;2022-07-25T05:04:47;3.08;;;1.98;;
35478;SDS011;21594;49.794;18.652;2022-07-25T05:07:13;1.80;;;1.45;;
35478;SDS011;21594;49.794;18.652;2022-07-25T05:09:39;3.60;;;1.90;;
35478;SDS011;21594;49.794;18.652;2022-07-25T05:12:06;3.47;;;1.62;;
35478;SDS011;21594;49.794;18.652;2022-07-25T05:14:33;2.15;;;1.72;;
35478;SDS011;21594;49.794;18.652;2022-07-25T05:16:59;2.62;;;1.75;;
35478;SDS011;21594;49.794;18.652;2022-07-25T05:19:25;3.12;;;1.98;;
35478;SDS011;21594;49.794;18.652;2022-07-25T05:21:52;2.08;;;1.60;;
35478;SDS011;21594;49.794;18.652;2022-07-25T05:24:18;2.60;;;1.62;;
35478;SDS011;21594;49.794;18.652;2022-07-25T05:26:44;2.98;;;2.00;;
35478;SDS011;21594;49.794;18.652;2022-07-25T05:29:12;2.27;;;1.90;;
35478;SDS011;21594;49.794;18.652;2022-07-25T05:31:42;4.92;;;1.80;;
35478;SDS011;21594;49.794;18.652;2022-07-25T05:34:08;2.00;;;1.50;;
35478;SDS011;21594;49.794;18.652;2022-07-25T05:36:36;3.08;;;2.00;;
35478;SDS011;21594;49.794;18.652;2022-07-25T05:39:05;4.50;;;1.98;;
35478;SDS011;21594;49.794;18.652;2022-07-25T05:41:32;1.98;;;1.77;;
35478;SDS011;21594;49.794;18.652;2022-07-25T05:43:59;2.80;;;1.82;;
35478;SDS011;21594;49.794;18.652;2022-07-25T05:46:25;4.67;;;1.90;;
35478;SDS011;21594;49.794;18.652;2022-07-25T05:48:52;2.22;;;1.40;;
35478;SDS011;21594;49.794;18.652;2022-07-25T05:51:19;3.87;;;1.67;;
35478;SDS011;21594;49.794;18.652;2022-07-25T05:56:16;3.37;;;1.75;;
35478;SDS011;21594;49.794;18.652;2022-07-25T05:58:42;1.70;;;1.30;;
35478;SDS011;21594;49.794;18.652;2022-07-25T06:01:12;2.70;;;2.17;;
35478;SDS011;21594;49.794;18.652;2022-07-25T06:03:45;1.37;;;1.10;;
35478;SDS011;21594;49.794;18.652;2022-07-25T06:06:11;2.50;;;1.77;;
35478;SDS011;21594;49.794;18.652;2022-07-25T06:08:37;3.27;;;1.45;;
35478;SDS011;21594;49.794;18.652;2022-07-25T06:11:05;3.80;;;1.75;;
35478;SDS011;21594;49.794;18.652;2022-07-25T06:13:32;3.12;;;1.95;;
35478;SDS011;21594;49.794;18.652;2022-07-25T06:15:59;2.40;;;1.40;;
35478;SDS011;21594;49.794;18.652;2022-07-25T06:18:28;3.62;;;1.30;;
35478;SDS011;21594;49.794;18.652;2022-07-25T06:21:04;3.65;;;1.32;;
35478;SDS011;21594;49.794;18.652;2022-07-25T06:23:31;2.52;;;1.47;;
35478;SDS011;21594;49.794;18.652;2022-07-25T06:26:03;2.60;;;1.20;;
35478;SDS011;21594;49.794;18.652;2022-07-25T06:28:29;1.62;;;1.40;;
35478;SDS011;21594;49.794;18.652;2022-07-25T06:30:55;2.77;;;1.57;;
35478;SDS011;21594;49.794;18.652;2022-07-25T06:33:21;1.92;;;1.30;;
35478;SDS011;21594;49.794;18.652;2022-07-25T06:35:47;1.72;;;1.32;;
35478;SDS011;21594;49.794;18.652;2022-07-25T06:38:13;2.35;;;1.20;;
35478;SDS011;21594;49.794;18.652;2022-07-25T06:40:40;2.00;;;1.80;;
35478;SDS011;21594;49.794;18.652;2022-07-25T06:43:06;1.50;;;1.25;;
35478;SDS011;21594;49.794;18.652;2022-07-25T06:45:33;3.92;;;1.50;;
35478;SDS011;21594;49.794;18.652;2022-07-25T06:48:05;3.40;;;1.25;;
35478;SDS011;21594;49.794;18.652;2022-07-25T06:50:31;0.90;;;0.90;;
35478;SDS011;21594;49.794;18.652;2022-07-25T06:55:27;2.33;;;1.47;;
35478;SDS011;21594;49.794;18.652;2022-07-25T06:57:55;3.15;;;1.35;;
35478;SDS011;21594;49.794;18.652;2022-07-25T07:00:26;3.55;;;1.30;;
35478;SDS011;21594;49.794;18.652;2022-07-25T07:02:52;3.58;;;1.62;;
35478;SDS011;21594;49.794;18.652;2022-07-25T07:05:26;1.85;;;1.30;;
35478;SDS011;21594;49.794;18.652;2022-07-25T07:07:53;1.75;;;1.10;;
35478;SDS011;21594;49.794;18.652;2022-07-25T07:10:20;1.30;;;1.15;;
35478;SDS011;21594;49.794;18.652;2022-07-25T07:13:07;1.30;;;1.20;;
35478;SDS011;21594;49.794;18.652;2022-07-25T07:15:35;1.92;;;1.35;;
35478;SDS011;21594;49.794;18.652;2022-07-25T07:18:06;1.70;;;1.10;;
35478;SDS011;21594;49.794;18.652;2022-07-25T07:20:32;2.47;;;1.70;;
35478;SDS011;21594;49.794;18.652;2022-07-25T07:23:00;2.92;;;1.20;;
35478;SDS011;21594;49.794;18.652;2022-07-25T07:25:27;2.15;;;1.20;;
35478;SDS011;21594;49.794;18.652;2022-07-25T07:27:55;2.85;;;1.10;;
35478;SDS011;21594;49.794;18.652;2022-07-25T07:30:21;2.22;;;0.90;;
35478;SDS011;21594;49.794;18.652;2022-07-25T07:32:47;1.32;;;1.05;;
35478;SDS011;21594;49.794;18.652;2022-07-25T07:35:13;1.22;;;1.07;;
35478;SDS011;21594;49.794;18.652;2022-07-25T07:37:41;1.50;;;1.37;;
35478;SDS011;21594;49.794;18.652;2022-07-25T07:40:09;1.47;;;1.07;;
35478;SDS011;21594;49.794;18.652;2022-07-25T07:45:13;1.80;;;1.25;;
35478;SDS011;21594;49.794;18.652;2022-07-25T07:47:43;0.90;;;0.90;;
35478;SDS011;21594;49.794;18.652;2022-07-25T07:50:12;4.78;;;1.22;;
35478;SDS011;21594;49.794;18.652;2022-07-25T07:52:38;1.47;;;0.93;;
35478;SDS011;21594;49.794;18.652;2022-07-25T07:55:10;4.10;;;0.93;;
35478;SDS011;21594;49.794;18.652;2022-07-25T07:57:59;2.05;;;1.05;;
35478;SDS011;21594;49.794;18.652;2022-07-25T08:00:27;1.77;;;1.10;;
35478;SDS011;21594;49.794;18.652;2022-07-25T08:02:55;1.22;;;1.00;;
35478;SDS011;21594;49.794;18.652;2022-07-25T08:05:28;2.65;;;0.90;;
35478;SDS011;21594;49.794;18.652;2022-07-25T08:08:02;3.40;;;1.00;;
35478;SDS011;21594;49.794;18.652;2022-07-25T08:10:30;1.50;;;1.00;;
35478;SDS011;21594;49.794;18.652;2022-07-25T08:12:58;1.25;;;1.00;;
35478;SDS011;21594;49.794;18.652;2022-07-25T08:15:25;1.37;;;0.80;;
35478;SDS011;21594;49.794;18.652;2022-07-25T08:17:51;1.17;;;0.98;;
35478;SDS011;21594;49.794;18.652;2022-07-25T08:20:19;1.52;;;0.85;;
35478;SDS011;21594;49.794;18.652;2022-07-25T08:22:50;2.77;;;1.20;;
35478;SDS011;21594;49.794;18.652;2022-07-25T08:25:22;1.27;;;1.10;;
35478;SDS011;21594;49.794;18.652;2022-07-25T08:27:48;2.12;;;0.82;;
35478;SDS011;21594;49.794;18.652;2022-07-25T08:30:14;2.98;;;1.00;;
35478;SDS011;21594;49.794;18.652;2022-07-25T08:32:49;1.55;;;1.10;;
35478;SDS011;21594;49.794;18.652;2022-07-25T08:35:20;2.47;;;1.10;;
35478;SDS011;21594;49.794;18.652;2022-07-25T08:37:49;1.98;;;0.90;;
35478;SDS011;21594;49.794;18.652;2022-07-25T08:40:18;3.08;;;1.27;;
35478;SDS011;21594;49.794;18.652;2022-07-25T08:42:52;2.35;;;0.82;;
35478;SDS011;21594;49.794;18.652;2022-07-25T08:45:23;1.55;;;1.00;;
35478;SDS011;21594;49.794;18.652;2022-07-25T08:47:52;1.55;;;1.15;;
35478;SDS011;21594;49.794;18.652;2022-07-25T08:50:23;2.15;;;1.00;;
35478;SDS011;21594;49.794;18.652;2022-07-25T08:52:51;1.60;;;1.00;;
35478;SDS011;21594;49.794;18.652;2022-07-25T08:55:19;1.57;;;1.10;;
35478;SDS011;21594;49.794;18.652;2022-07-25T08:57:52;1.30;;;1.20;;
35478;SDS011;21594;49.794;18.652;2022-07-25T09:00:20;1.07;;;0.88;;
35478;SDS011;21594;49.794;18.652;2022-07-25T09:02:56;2.35;;;1.05;;
35478;SDS011;21594;49.794;18.652;2022-07-25T09:05:35;0.82;;;0.80;;
35478;SDS011;21594;49.794;18.652;2022-07-25T09:08:06;0.88;;;0.80;;
35478;SDS011;21594;49.794;18.652;2022-07-25T09:10:36;1.05;;;0.85;;
35478;SDS011;21594;49.794;18.652;2022-07-25T09:13:06;1.75;;;0.90;;
35478;SDS011;21594;49.794;18.652;2022-07-25T09:15:40;1.27;;;1.00;;
35478;SDS011;21594;49.794;18.652;2022-07-25T09:18:22;1.17;;;1.02;;
35478;SDS011;21594;49.794;18.652;2022-07-25T09:23:29;0.82;;;0.70;;
35478;SDS011;21594;49.794;18.652;2022-07-25T09:26:05;1.75;;;0.80;;
35478;SDS011;21594;49.794;18.652;2022-07-25T09:28:40;1.27;;;0.82;;
35478;SDS011;21594;49.794;18.652;2022-07-25T09:31:07;1.77;;;0.98;;
35478;SDS011;21594;49.794;18.652;2022-07-25T09:33:53;1.02;;;0.85;;
35478;SDS011;21594;49.794;18.652;2022-07-25T09:36:17;0.75;;;0.75;;
35478;SDS011;21594;49.794;18.652;2022-07-25T09:38:57;1.47;;;0.90;;
35478;SDS011;21594;49.794;18.652;2022-07-25T09:41:38;1.57;;;0.85;;
35478;SDS011;21594;49.794;18.652;2022-07-25T09:44:16;1.57;;;0.93;;
35478;SDS011;21594;49.794;18.652;2022-07-25T09:46:43;1.30;;;1.15;;
35478;SDS011;21594;49.794;18.652;2022-07-25T09:49:10;1.70;;;0.80;;
35478;SDS011;21594;49.794;18.652;2022-07-25T09:51:49;0.98;;;0.78;;
35478;SDS011;21594;49.794;18.652;2022-07-25T09:54:16;1.42;;;0.90;;
35478;SDS011;21594;49.794;18.652;2022-07-25T09:56:42;1.57;;;0.78;;
35478;SDS011;21594;49.794;18.652;2022-07-25T09:59:09;1.57;;;0.95;;
35478;SDS011;21594;49.794;18.652;2022-07-25T10:01:47;1.20;;;0.75;;
35478;SDS011;21594;49.794;18.652;2022-07-25T10:04:38;1.30;;;1.02;;
35478;SDS011;21594;49.794;18.652;2022-07-25T10:06:52;1.65;;;0.85;;
35478;SDS011;21594;49.794;18.652;2022-07-25T10:09:19;2.50;;;1.30;;
35478;SDS011;21594;49.794;18.652;2022-07-25T10:14:36;1.72;;;0.90;;
35478;SDS011;21594;49.794;18.652;2022-07-25T10:17:03;1.82;;;0.88;;
35478;SDS011;21594;49.794;18.652;2022-07-25T10:19:46;1.50;;;1.00;;
35478;SDS011;21594;49.794;18.652;2022-07-25T10:22:15;1.92;;;0.90;;
35478;SDS011;21594;49.794;18.652;2022-07-25T10:24:45;1.45;;;1.00;;
35478;SDS011;21594;49.794;18.652;2022-07-25T10:27:13;1.65;;;0.90;;
35478;SDS011;21594;49.794;18.652;2022-07-25T10:29:41;3.17;;;1.10;;
35478;SDS011;21594;49.794;18.652;2022-07-25T10:32:08;1.30;;;1.00;;
35478;SDS011;21594;49.794;18.652;2022-07-25T10:34:38;1.77;;;0.90;;
35478;SDS011;21594;49.794;18.652;2022-07-25T10:37:14;2.08;;;1.10;;
35478;SDS011;21594;49.794;18.652;2022-07-25T10:39:41;1.82;;;1.22;;
35478;SDS011;21594;49.794;18.652;2022-07-25T10:42:11;2.17;;;0.88;;
35478;SDS011;21594;49.794;18.652;2022-07-25T10:44:43;2.95;;;1.05;;
35478;SDS011;21594;49.794;18.652;2022-07-25T10:47:13;1.45;;;0.98;;
35478;SDS011;21594;49.794;18.652;2022-07-25T10:49:41;1.72;;;0.88;;
35478;SDS011;21594;49.794;18.652;2022-07-25T10:52:17;2.20;;;1.07;;
35478;SDS011;21594;49.794;18.652;2022-07-25T10:54:54;1.37;;;0.90;;
35478;SDS011;21594;49.794;18.652;2022-07-25T10:57:23;1.52;;;1.00;;
35478;SDS011;21594;49.794;18.652;2022-07-25T10:59:49;1.77;;;1.00;;
35478;SDS011;21594;49.794;18.652;2022-07-25T11:02:17;2.35;;;0.90;;
35478;SDS011;21594;49.794;18.652;2022-07-25T11:04:45;1.40;;;1.00;;
35478;SDS011;21594;49.794;18.652;2022-07-25T11:07:25;1.20;;;0.95;;
35478;SDS011;21594;49.794;18.652;2022-07-25T11:09:58;1.65;;;1.07;;
35478;SDS011;21594;49.794;18.652;2022-07-25T11:15:03;1.77;;;1.35;;
35478;SDS011;21594;49.794;18.652;2022-07-25T11:17:30;2.62;;;0.95;;
35478;SDS011;21594;49.794;18.652;2022-07-25T11:19:58;1.10;;;0.98;;
35478;SDS011;21594;49.794;18.652;2022-07-25T11:22:35;1.10;;;1.00;;
35478;SDS011;21594;49.794;18.652;2022-07-25T11:25:02;2.65;;;0.90;;
35478;SDS011;21594;49.794;18.652;2022-07-25T11:27:37;4.40;;;0.90;;
35478;SDS011;21594;49.794;18.652;2022-07-25T11:30:10;1.70;;;1.60;;
35478;SDS011;21594;49.794;18.652;2022-07-25T11:32:41;2.15;;;1.12;;
35478;SDS011;21594;49.794;18.652;2022-07-25T11:37:42;2.22;;;1.05;;
35478;SDS011;21594;49.794;18.652;2022-07-25T11:40:11;1.42;;;1.20;;
35478;SDS011;21594;49.794;18.652;2022-07-25T11:42:53;2.08;;;1.10;;
35478;SDS011;21594;49.794;18.652;2022-07-25T11:45:24;1.27;;;1.02;;
35478;SDS011;21594;49.794;18.652;2022-07-25T11:48:02;1.52;;;1.00;;
35478;SDS011;21594;49.794;18.652;2022-07-25T11:50:33;1.42;;;1.00;;
35478;SDS011;21594;49.794;18.652;2022-07-25T11:53:02;1.85;;;0.90;;
35478;SDS011;21594;49.794;18.652;2022-07-25T11:55:31;3.27;;;1.22;;
35478;SDS011;21594;49.794;18.652;2022-07-25T11:58:01;1.75;;;0.95;;
35478;SDS011;21594;49.794;18.652;2022-07-25T12:00:33;1.50;;;0.80;;
35478;SDS011;21594;49.794;18.652;2022-07-25T12:03:06;1.12;;;0.93;;
35478;SDS011;21594;49.794;18.652;2022-07-25T12:05:35;0.95;;;0.88;;
35478;SDS011;21594;49.794;18.652;2022-07-25T12:08:14;2.25;;;1.05;;
35478;SDS011;21594;49.794;18.652;2022-07-25T12:10:42;0.80;;;0.70;;
35478;SDS011;21594;49.794;18.652;2022-07-25T12:13:22;1.25;;;1.00;;
35478;SDS011;21594;49.794;18.652;2022-07-25T12:15:50;1.80;;;1.07;;
35478;SDS011;21594;49.794;18.652;2022-07-25T12:18:17;2.65;;;1.35;;
35478;SDS011;21594;49.794;18.652;2022-07-25T12:20:43;0.93;;;0.90;;
35478;SDS011;21594;49.794;18.652;2022-07-25T12:23:10;1.20;;;1.10;;
35478;SDS011;21594;49.794;18.652;2022-07-25T12:25:38;0.88;;;0.80;;
35478;SDS011;21594;49.794;18.652;2022-07-25T12:28:08;3.22;;;1.00;;
35478;SDS011;21594;49.794;18.652;2022-07-25T12:30:35;0.85;;;0.75;;
35478;SDS011;21594;49.794;18.652;2022-07-25T12:33:03;0.70;;;0.70;;
35478;SDS011;21594;49.794;18.652;2022-07-25T12:35:33;1.57;;;1.00;;
35478;SDS011;21594;49.794;18.652;2022-07-25T12:38:02;1.55;;;1.07;;
35478;SDS011;21594;49.794;18.652;2022-07-25T12:40:29;2.62;;;1.00;;
35478;SDS011;21594;49.794;18.652;2022-07-25T12:42:56;3.55;;;1.20;;
35478;SDS011;21594;49.794;18.652;2022-07-25T12:45:23;3.83;;;1.02;;
35478;SDS011;21594;49.794;18.652;2022-07-25T12:47:52;1.07;;;0.82;;
35478;SDS011;21594;49.794;18.652;2022-07-25T12:50:18;1.00;;;0.80;;
35478;SDS011;21594;49.794;18.652;2022-07-25T12:52:45;2.22;;;0.98;;
35478;SDS011;21594;49.794;18.652;2022-07-25T12:55:13;1.77;;;0.90;;
35478;SDS011;21594;49.794;18.652;2022-07-25T12:57:44;2.22;;;1.02;;
35478;SDS011;21594;49.794;18.652;2022-07-25T13:00:13;1.07;;;0.98;;
35478;SDS011;21594;49.794;18.652;2022-07-25T13:02:44;0.93;;;0.90;;
35478;SDS011;21594;49.794;18.652;2022-07-25T13:05:13;2.55;;;1.27;;
35478;SDS011;21594;49.794;18.652;2022-07-25T13:07:39;1.20;;;1.10;;
35478;SDS011;21594;49.794;18.652;2022-07-25T13:10:05;2.15;;;1.10;;
35478;SDS011;21594;49.794;18.652;2022-07-25T13:12:32;2.62;;;0.82;;
35478;SDS011;21594;49.794;18.652;2022-07-25T13:15:04;1.10;;;1.00;;
35478;SDS011;21594;49.794;18.652;2022-07-25T13:17:31;2.05;;;1.10;;
35478;SDS011;21594;49.794;18.652;2022-07-25T13:19:58;1.17;;;0.80;;
35478;SDS011;21594;49.794;18.652;2022-07-25T13:22:25;1.25;;;0.93;;
35478;SDS011;21594;49.794;18.652;2022-07-25T13:24:51;1.77;;;1.07;;
35478;SDS011;21594;49.794;18.652;2022-07-25T13:27:18;1.02;;;0.85;;
35478;SDS011;21594;49.794;18.652;2022-07-25T13:29:51;1.52;;;1.42;;
35478;SDS011;21594;49.794;18.652;2022-07-25T13:32:19;1.52;;;1.00;;
35478;SDS011;21594;49.794;18.652;2022-07-25T13:34:46;2.67;;;1.10;;
35478;SDS011;21594;49.794;18.652;2022-07-25T13:37:15;1.17;;;0.88;;
35478;SDS011;21594;49.794;18.652;2022-07-25T13:39:43;1.60;;;1.03;;
35478;SDS011;21594;49.794;18.652;2022-07-25T13:42:09;2.70;;;1.05;;
35478;SDS011;21594;49.794;18.652;2022-07-25T13:44:40;2.05;;;0.95;;
35478;SDS011;21594;49.794;18.652;2022-07-25T13:47:04;4.60;;;1.07;;
35478;SDS011;21594;49.794;18.652;2022-07-25T13:49:31;1.57;;;1.22;;
35478;SDS011;21594;49.794;18.652;2022-07-25T13:51:58;3.65;;;1.00;;
35478;SDS011;21594;49.794;18.652;2022-07-25T13:54:24;3.47;;;1.45;;
35478;SDS011;21594;49.794;18.652;2022-07-25T13:56:50;1.20;;;0.90;;
35478;SDS011;21594;49.794;18.652;2022-07-25T13:59:19;1.42;;;1.25;;
35478;SDS011;21594;49.794;18.652;2022-07-25T14:01:46;1.67;;;1.10;;
35478;SDS011;21594;49.794;18.652;2022-07-25T14:04:12;1.40;;;1.00;;
35478;SDS011;21594;49.794;18.652;2022-07-25T14:06:40;1.70;;;1.07;;
35478;SDS011;21594;49.794;18.652;2022-07-25T14:09:06;3.10;;;1.12;;
35478;SDS011;21594;49.794;18.652;2022-07-25T14:11:35;2.30;;;0.90;;
35478;SDS011;21594;49.794;18.652;2022-07-25T14:14:02;1.60;;;0.90;;
35478;SDS011;21594;49.794;18.652;2022-07-25T14:16:28;1.20;;;1.10;;
35478;SDS011;21594;49.794;18.652;2022-07-25T14:18:54;3.55;;;1.00;;
35478;SDS011;21594;49.794;18.652;2022-07-25T14:21:21;2.05;;;0.95;;
35478;SDS011;21594;49.794;18.652;2022-07-25T14:23:47;1.67;;;0.95;;
35478;SDS011;21594;49.794;18.652;2022-07-25T14:26:13;3.55;;;1.20;;
35478;SDS011;21594;49.794;18.652;2022-07-25T14:28:39;2.08;;;1.00;;
35478;SDS011;21594;49.794;18.652;2022-07-25T14:31:06;1.35;;;1.17;;
35478;SDS011;21594;49.794;18.652;2022-07-25T14:33:34;3.45;;;1.00;;
35478;SDS011;21594;49.794;18.652;2022-07-25T14:36:08;2.75;;;1.00;;
35478;SDS011;21594;49.794;18.652;2022-07-25T14:38:34;1.10;;;0.95;;
35478;SDS011;21594;49.794;18.652;2022-07-25T14:41:07;2.67;;;1.10;;
35478;SDS011;21594;49.794;18.652;2022-07-25T14:43:33;2.00;;;1.20;;
35478;SDS011;21594;49.794;18.652;2022-07-25T14:45:59;1.27;;;1.10;;
35478;SDS011;21594;49.794;18.652;2022-07-25T14:48:26;1.40;;;1.00;;
35478;SDS011;21594;49.794;18.652;2022-07-25T14:50:52;2.40;;;1.30;;
35478;SDS011;21594;49.794;18.652;2022-07-25T14:53:19;1.17;;;1.05;;
35478;SDS011;21594;49.794;18.652;2022-07-25T14:55:45;1.17;;;0.98;;
35478;SDS011;21594;49.794;18.652;2022-07-25T14:58:17;1.52;;;1.00;;
35478;SDS011;21594;49.794;18.652;2022-07-25T15:00:41;1.17;;;1.00;;
35478;SDS011;21594;49.794;18.652;2022-07-25T15:03:08;2.08;;;1.00;;